Columbia Falls, Montana
Current Conditions -  °F | °C
As of 10:55 PM on Tuesday 27 Jan 2015 (Local Time) from KGPI Reporting Station
Haze Haze  
Wind Chill: 10°   Ceiling: Unl
Heat Index: 18°   Visibility: 4mi
Dew Point: 17°   Wind: 6mph
Humidity: 96%   Direction: 350°N
Pressure: 30"   Gusts: NA
Location:  48.37°N, 114.18°W
Report Text: KGPI 280555Z 35005KT 4SM BR FEW003 M08/M08 A3000 RMK AO2 VIS 2 1/2 NE SLP196 I1000 I6001 T10781083 10006 21089 53009
Loading
Personal Weather Stations






























Interactive Weather Map New forecast layout! Learn more

10-Day Weather Forecast

Advertisements
Track Severe Weather on mobile